createdAt,value
2022-09-03T00:00:52.198Z,53.88
2022-09-03T00:01:52.238Z,53.67
2022-09-03T00:02:52.321Z,53.78
2022-09-03T00:03:52.177Z,53.88
2022-09-03T00:04:52.128Z,54.10
2022-09-03T00:05:52.148Z,54.00
2022-09-03T00:06:52.178Z,54.10
2022-09-03T00:07:52.253Z,54.10
2022-09-03T00:08:52.177Z,53.90
2022-09-03T00:09:52.469Z,54.10
2022-09-03T00:10:52.588Z,54.21
2022-09-03T00:11:52.088Z,54.41
2022-09-03T00:12:52.078Z,54.41
2022-09-03T00:13:52.076Z,54.21
2022-09-03T00:14:52.066Z,54.30
2022-09-03T00:15:52.113Z,54.41
2022-09-03T00:16:52.048Z,54.61
2022-09-03T00:17:52.037Z,54.91
2022-09-03T00:18:52.036Z,54.30
2022-09-03T00:19:52.028Z,54.71
2022-09-03T00:20:52.086Z,54.71
2022-09-03T00:21:52.037Z,54.91
2022-09-03T00:22:52.036Z,54.94
2022-09-03T00:23:52.077Z,54.83
2022-09-03T00:24:52.007Z,54.83
2022-09-03T00:25:52.004Z,54.94
2022-09-03T00:26:51.986Z,54.83
2022-09-03T00:27:52.027Z,55.14
2022-09-03T00:28:51.977Z,54.73
2022-09-03T00:29:51.976Z,54.83
2022-09-03T00:30:52.607Z,54.81
2022-09-03T00:31:52.015Z,54.71
2022-09-03T00:32:52.066Z,54.81
2022-09-03T00:33:52.044Z,54.71
2022-09-03T00:34:52.051Z,54.61
2022-09-03T00:35:51.925Z,54.71
2022-09-03T00:36:51.914Z,54.30
2022-09-03T00:37:51.895Z,54.30
2022-09-03T00:38:51.905Z,54.50
2022-09-03T00:39:51.966Z,54.50
2022-09-03T00:40:51.883Z,54.41
2022-09-03T00:41:51.893Z,54.50
2022-09-03T00:42:51.975Z,54.81
2022-09-03T00:43:52.574Z,54.91
2022-09-03T00:44:52.567Z,54.94
2022-09-03T00:45:52.637Z,55.04
2022-09-03T00:46:51.924Z,55.44
2022-09-03T00:47:51.861Z,55.84
2022-09-03T00:48:52.147Z,55.74
2022-09-03T00:49:51.816Z,56.57
2022-09-03T00:50:51.825Z,56.88
2022-09-03T00:51:51.825Z,57.01
2022-09-03T00:52:52.625Z,57.51
2022-09-03T00:53:52.635Z,57.61
2022-09-03T00:54:51.793Z,57.94
2022-09-03T00:55:51.821Z,58.14
2022-09-03T00:56:51.788Z,58.67
2022-09-03T00:57:51.763Z,58.67
2022-09-03T00:58:51.759Z,58.67
2022-09-03T00:59:51.742Z,59.00
2022-09-03T01:00:51.763Z,59.11
2022-09-03T01:01:52.089Z,59.00
2022-09-03T01:02:52.034Z,59.11
2022-09-03T01:03:52.103Z,59.21
2022-09-03T01:04:52.145Z,59.61
2022-09-03T01:05:51.946Z,59.94
2022-09-03T01:06:51.752Z,60.05
2022-09-03T01:07:51.691Z,60.14
2022-09-03T01:08:51.772Z,60.45
2022-09-03T01:09:51.681Z,60.78
2022-09-03T01:10:51.682Z,60.58
2022-09-03T01:11:51.871Z,60.98
2022-09-03T01:12:51.770Z,61.49
2022-09-03T01:13:51.652Z,61.29
2022-09-03T01:14:51.731Z,61.49
2022-09-03T01:15:51.713Z,61.62
2022-09-03T01:16:52.121Z,61.32
2022-09-03T01:17:52.000Z,61.21
2022-09-03T01:18:51.870Z,61.39
2022-09-03T01:19:51.964Z,61.19
2022-09-03T01:20:51.612Z,61.19
2022-09-03T01:21:51.643Z,60.78
2022-09-03T01:22:51.640Z,60.78
2022-09-03T01:23:52.660Z,60.68
2022-09-03T01:24:51.590Z,60.78
2022-09-03T01:25:51.721Z,60.68
2022-09-03T01:26:51.589Z,60.25
2022-09-03T01:27:51.701Z,60.35
2022-09-03T01:28:51.550Z,60.55
2022-09-03T01:29:52.879Z,60.35
2022-09-03T01:30:51.627Z,60.05
2022-09-03T01:31:52.440Z,59.71
2022-09-03T01:32:52.822Z,59.61
2022-09-03T01:33:52.408Z,59.31
2022-09-03T01:34:52.424Z,58.80
2022-09-03T01:35:52.449Z,58.58
2022-09-03T01:36:52.340Z,58.37
2022-09-03T01:37:51.788Z,58.37
2022-09-03T01:38:52.445Z,58.37
2022-09-03T01:39:52.356Z,58.37
2022-09-03T01:40:52.164Z,58.07
2022-09-03T01:41:51.658Z,57.97
2022-09-03T01:42:51.797Z,57.84
2022-09-03T01:43:51.630Z,57.64
2022-09-03T01:44:52.992Z,57.43
2022-09-03T01:45:52.296Z,57.34
2022-09-03T01:46:51.547Z,57.43
2022-09-03T01:47:51.547Z,57.64
2022-09-03T01:48:51.901Z,57.54
2022-09-03T01:49:51.456Z,57.74
2022-09-03T01:50:51.677Z,57.43
2022-09-03T01:51:51.719Z,57.54
2022-09-03T01:52:51.498Z,57.43
2022-09-03T01:53:51.496Z,57.64
2022-09-03T01:54:51.506Z,57.64
2022-09-03T01:55:51.467Z,57.43
2022-09-03T01:56:51.511Z,57.84
2022-09-03T01:57:51.517Z,57.23
2022-09-03T01:58:51.407Z,57.14
2022-09-03T01:59:51.664Z,57.14
2022-09-03T02:00:51.424Z,57.01
2022-09-03T02:01:51.466Z,57.21
2022-09-03T02:02:51.716Z,57.01
2022-09-03T02:03:51.836Z,57.10
2022-09-03T02:04:51.876Z,56.90
2022-09-03T02:05:52.215Z,57.01
2022-09-03T02:06:51.836Z,57.01
2022-09-03T02:07:51.982Z,57.10
2022-09-03T02:08:51.956Z,56.90
2022-09-03T02:09:51.594Z,57.10
2022-09-03T02:10:52.154Z,57.41
2022-09-03T02:11:51.704Z,57.34
2022-09-03T02:12:51.402Z,57.84
2022-09-03T02:13:51.297Z,58.14
2022-09-03T02:14:51.634Z,58.34
2022-09-03T02:15:52.209Z,58.58
2022-09-03T02:16:51.243Z,59.18
2022-09-03T02:17:51.636Z,59.51
2022-09-03T02:18:51.243Z,59.41
2022-09-03T02:19:51.274Z,59.61
2022-09-03T02:20:51.234Z,59.81
2022-09-03T02:21:51.283Z,60.12
2022-09-03T02:22:51.285Z,60.55
2022-09-03T02:23:51.342Z,60.45
2022-09-03T02:24:51.253Z,60.85
2022-09-03T02:25:51.277Z,61.16
2022-09-03T02:26:51.314Z,60.78
2022-09-03T02:27:51.503Z,60.55
2022-09-03T02:28:51.210Z,61.16
2022-09-03T02:29:51.362Z,61.59
2022-09-03T02:30:51.330Z,61.99
2022-09-03T02:31:51.493Z,62.30
2022-09-03T02:32:51.202Z,62.63
2022-09-03T02:33:51.412Z,63.47
2022-09-03T02:34:51.433Z,63.78
2022-09-03T02:35:51.445Z,64.18
2022-09-03T02:36:51.264Z,64.31
2022-09-03T02:37:51.462Z,64.01
2022-09-03T02:38:51.173Z,64.31
2022-09-03T02:39:51.563Z,64.11
2022-09-03T02:40:51.060Z,64.41
2022-09-03T02:41:51.382Z,64.51
2022-09-03T02:42:51.432Z,64.51
2022-09-03T02:43:51.071Z,64.82
2022-09-03T02:44:51.031Z,65.15
2022-09-03T02:45:51.442Z,65.25
2022-09-03T02:46:51.040Z,65.36
2022-09-03T02:47:51.598Z,65.36
2022-09-03T02:48:51.051Z,65.45
2022-09-03T02:49:51.009Z,65.56
2022-09-03T02:50:51.040Z,65.86
2022-09-03T02:51:51.082Z,65.96
2022-09-03T02:52:51.042Z,65.89
2022-09-03T02:53:50.993Z,66.19
2022-09-03T02:54:50.959Z,66.30
2022-09-03T02:55:51.002Z,66.40
2022-09-03T02:56:51.110Z,66.30
2022-09-03T02:57:51.129Z,66.33
2022-09-03T02:58:51.148Z,66.33
2022-09-03T02:59:51.187Z,66.63
2022-09-03T03:00:51.143Z,66.63
2022-09-03T03:01:51.055Z,66.63
2022-09-03T03:02:51.074Z,66.74
2022-09-03T03:03:50.990Z,66.63
2022-09-03T03:04:51.038Z,66.33
2022-09-03T03:05:51.081Z,66.13
2022-09-03T03:06:50.962Z,66.23
2022-09-03T03:07:50.968Z,66.02
2022-09-03T03:08:51.220Z,66.13
2022-09-03T03:09:51.297Z,66.63
2022-09-03T03:10:50.987Z,66.83
2022-09-03T03:11:51.305Z,67.27
2022-09-03T03:12:50.940Z,66.77
2022-09-03T03:13:51.328Z,66.86
2022-09-03T03:14:50.927Z,67.17
2022-09-03T03:15:51.317Z,67.17
2022-09-03T03:16:51.398Z,67.47
2022-09-03T03:17:51.026Z,67.88
2022-09-03T03:18:50.909Z,68.08
2022-09-03T03:19:50.827Z,68.49
2022-09-03T03:20:50.855Z,68.62
2022-09-03T03:21:51.438Z,68.73
2022-09-03T03:22:51.286Z,69.03
2022-09-03T03:23:50.899Z,68.73
2022-09-03T03:24:51.466Z,68.42
2022-09-03T03:25:51.126Z,68.83
2022-09-03T03:26:50.787Z,68.73
2022-09-03T03:27:51.085Z,69.13
2022-09-03T03:28:51.515Z,69.47
2022-09-03T03:29:51.206Z,69.78
2022-09-03T03:30:51.515Z,69.78
2022-09-03T03:31:51.036Z,69.78
2022-09-03T03:32:50.894Z,69.37
2022-09-03T03:33:52.675Z,69.57
2022-09-03T03:34:51.514Z,69.57
2022-09-03T03:35:50.954Z,69.26
2022-09-03T03:36:50.733Z,69.03
2022-09-03T03:37:50.873Z,68.93
2022-09-03T03:38:50.726Z,69.03
2022-09-03T03:39:50.719Z,68.93
2022-09-03T03:40:50.704Z,69.13
2022-09-03T03:41:50.763Z,68.73
2022-09-03T03:42:50.744Z,69.13
2022-09-03T03:43:50.898Z,69.23
2022-09-03T03:44:50.973Z,69.13
2022-09-03T03:45:50.929Z,69.13
2022-09-03T03:46:50.694Z,69.43
2022-09-03T03:47:50.644Z,69.47
2022-09-03T03:48:50.684Z,69.98
2022-09-03T03:49:50.711Z,69.74
2022-09-03T03:50:50.772Z,69.47
2022-09-03T03:51:50.822Z,69.87
2022-09-03T03:52:50.862Z,69.67
2022-09-03T03:53:50.952Z,69.57
2022-09-03T03:54:50.594Z,69.37
2022-09-03T03:55:50.573Z,69.06
2022-09-03T03:56:55.454Z,69.03
2022-09-03T03:57:50.602Z,69.03
2022-09-03T03:58:50.601Z,68.93
2022-09-03T03:59:50.572Z,68.62
2022-09-03T04:00:50.558Z,68.83
2022-09-03T04:01:50.523Z,68.32
2022-09-03T04:02:50.680Z,68.32
2022-09-03T04:03:50.601Z,68.52
2022-09-03T04:04:50.566Z,68.01
2022-09-03T04:05:51.551Z,68.22
2022-09-03T04:06:50.562Z,67.91
2022-09-03T04:07:50.615Z,68.08
2022-09-03T04:08:50.662Z,67.91
2022-09-03T04:09:50.460Z,68.12
2022-09-03T04:10:50.566Z,68.22
2022-09-03T04:11:50.581Z,68.62
2022-09-03T04:12:50.440Z,68.52
2022-09-03T04:13:50.733Z,68.62
2022-09-03T04:14:50.610Z,68.73
2022-09-03T04:15:50.549Z,68.93
2022-09-03T04:16:50.492Z,68.73
2022-09-03T04:17:50.518Z,68.93
2022-09-03T04:18:50.488Z,69.37
2022-09-03T04:19:50.538Z,70.08
2022-09-03T04:20:50.414Z,70.48
2022-09-03T04:21:50.628Z,70.68
2022-09-03T04:22:52.039Z,70.92
2022-09-03T04:23:50.719Z,71.33
2022-09-03T04:24:50.771Z,71.53
2022-09-03T04:25:50.847Z,71.57
2022-09-03T04:26:50.405Z,71.77
2022-09-03T04:27:50.907Z,72.08
2022-09-03T04:28:50.966Z,72.08
2022-09-03T04:29:50.485Z,72.17
2022-09-03T04:30:50.675Z,72.48
2022-09-03T04:31:50.966Z,72.17
2022-09-03T04:32:50.403Z,72.28
2022-09-03T04:33:50.376Z,72.28
2022-09-03T04:34:50.666Z,72.28
2022-09-03T04:35:50.385Z,72.38
2022-09-03T04:36:52.938Z,72.38
2022-09-03T04:37:51.054Z,72.17
2022-09-03T04:38:50.596Z,72.28
2022-09-03T04:39:50.374Z,72.28
2022-09-03T04:40:50.316Z,72.31
2022-09-03T04:41:51.367Z,72.38
2022-09-03T04:42:50.354Z,72.72
2022-09-03T04:43:51.566Z,72.92
2022-09-03T04:44:50.335Z,73.02
2022-09-03T04:45:50.504Z,72.82
2022-09-03T04:46:50.415Z,73.13
2022-09-03T04:47:50.346Z,73.02
2022-09-03T04:48:50.505Z,73.02
2022-09-03T04:49:50.507Z,73.54
2022-09-03T04:50:50.446Z,73.63
2022-09-03T04:51:50.712Z,73.54
2022-09-03T04:52:50.745Z,73.54
2022-09-03T04:53:50.423Z,73.57
2022-09-03T04:54:50.816Z,73.74
2022-09-03T04:55:50.223Z,73.43
2022-09-03T04:56:50.495Z,73.74
2022-09-03T04:57:50.323Z,74.04
2022-09-03T04:58:51.191Z,73.63
2022-09-03T04:59:50.224Z,73.63
2022-09-03T05:00:50.370Z,73.54
2022-09-03T05:01:50.532Z,73.74
2022-09-03T05:02:50.544Z,73.43
2022-09-03T05:03:50.591Z,73.63
2022-09-03T05:04:50.673Z,73.74
2022-09-03T05:05:52.473Z,74.15
2022-09-03T05:06:50.386Z,74.24
2022-09-03T05:07:50.500Z,74.04
2022-09-03T05:08:50.839Z,74.15
2022-09-03T05:09:50.111Z,74.04
2022-09-03T05:10:50.132Z,74.15
2022-09-03T05:11:50.366Z,74.35
2022-09-03T05:12:50.463Z,74.45
2022-09-03T05:13:50.550Z,74.04
2022-09-03T05:14:50.158Z,74.35
2022-09-03T05:15:50.272Z,74.65
2022-09-03T05:16:53.058Z,74.76
2022-09-03T05:17:50.341Z,74.96
2022-09-03T05:18:51.001Z,74.96
2022-09-03T05:19:50.149Z,75.16
2022-09-03T05:20:50.010Z,75.37
2022-09-03T05:21:50.028Z,74.96
2022-09-03T05:22:50.020Z,74.55
2022-09-03T05:23:50.189Z,74.21
2022-09-03T05:24:50.440Z,73.80
2022-09-03T05:25:50.329Z,73.30
2022-09-03T05:26:50.256Z,73.30
2022-09-03T05:27:49.949Z,73.46
2022-09-03T05:28:50.308Z,72.96
2022-09-03T05:29:50.002Z,73.16
2022-09-03T05:30:50.009Z,72.96
2022-09-03T05:31:50.014Z,72.55
2022-09-03T05:32:49.987Z,72.65
2022-09-03T05:33:50.028Z,72.31
2022-09-03T05:34:50.121Z,72.62
2022-09-03T05:35:50.139Z,72.41
2022-09-03T05:36:50.175Z,72.52
2022-09-03T05:37:50.067Z,72.41
2022-09-03T05:38:50.093Z,72.52
2022-09-03T05:39:49.991Z,72.58
2022-09-03T05:40:50.020Z,72.28
2022-09-03T05:41:49.889Z,72.17
2022-09-03T05:42:49.903Z,72.08
2022-09-03T05:43:50.149Z,71.88
2022-09-03T05:44:50.176Z,72.08
2022-09-03T05:45:50.270Z,72.04
2022-09-03T05:46:49.902Z,71.64
2022-09-03T05:47:50.316Z,71.64
2022-09-03T05:48:50.356Z,71.44
2022-09-03T05:49:49.837Z,71.09
2022-09-03T05:50:49.922Z,70.89
2022-09-03T05:51:49.846Z,71.06
2022-09-03T05:52:50.515Z,69.95
2022-09-03T05:53:50.595Z,69.74
2022-09-03T05:54:50.355Z,69.31
2022-09-03T05:55:49.806Z,68.60
2022-09-03T05:56:49.775Z,69.17
2022-09-03T05:57:50.058Z,68.16
2022-09-03T05:58:50.387Z,67.11
2022-09-03T05:59:49.755Z,66.81
2022-09-03T06:00:50.188Z,66.81
2022-09-03T06:01:51.633Z,66.58
2022-09-03T06:02:49.939Z,65.87
2022-09-03T06:03:50.093Z,65.43
2022-09-03T06:04:50.472Z,64.90
2022-09-03T06:05:50.343Z,64.09
2022-09-03T06:06:50.228Z,63.96
2022-09-03T06:07:49.982Z,63.55
2022-09-03T06:08:49.844Z,63.42
2022-09-03T06:09:49.703Z,63.93
2022-09-03T06:10:49.762Z,63.82
2022-09-03T06:11:50.418Z,64.13
2022-09-03T06:12:49.853Z,63.93
2022-09-03T06:13:49.722Z,63.19
2022-09-03T06:14:49.803Z,63.29
2022-09-03T06:15:49.701Z,62.48
2022-09-03T06:16:50.053Z,62.48
2022-09-03T06:17:49.702Z,62.45
2022-09-03T06:18:49.822Z,62.65
2022-09-03T06:19:50.122Z,62.65
2022-09-03T06:20:49.724Z,62.96
2022-09-03T06:21:49.680Z,62.32
2022-09-03T06:22:49.613Z,62.32
2022-09-03T06:23:49.750Z,62.83
2022-09-03T06:24:49.568Z,62.09
2022-09-03T06:25:49.569Z,61.69
2022-09-03T06:26:49.580Z,62.09
2022-09-03T06:27:49.572Z,62.57
2022-09-03T06:28:49.662Z,62.06
2022-09-03T06:29:49.720Z,61.66
2022-09-03T06:30:49.570Z,61.25
2022-09-03T06:31:49.839Z,62.16
2022-09-03T06:32:49.729Z,61.56
2022-09-03T06:33:49.499Z,61.16
2022-09-03T06:34:49.542Z,61.73
2022-09-03T06:35:49.520Z,61.03
2022-09-03T06:36:49.548Z,61.03
2022-09-03T06:37:49.570Z,61.93
2022-09-03T06:38:49.543Z,61.03
2022-09-03T06:39:49.587Z,60.93
2022-09-03T06:40:49.560Z,60.60
2022-09-03T06:41:49.449Z,60.39
2022-09-03T06:42:49.584Z,60.80
2022-09-03T06:43:49.459Z,61.10
2022-09-03T06:44:49.618Z,60.27
2022-09-03T06:45:49.430Z,59.56
2022-09-03T06:46:49.438Z,59.36
2022-09-03T06:47:49.470Z,58.83
2022-09-03T06:48:49.509Z,58.73
2022-09-03T06:49:49.570Z,58.83
2022-09-03T06:50:49.558Z,58.62
2022-09-03T06:51:49.559Z,58.12
2022-09-03T06:52:49.338Z,58.53
2022-09-03T06:53:49.357Z,57.82
2022-09-03T06:54:49.747Z,58.09
2022-09-03T06:55:49.346Z,57.79
2022-09-03T06:56:49.505Z,57.19
2022-09-03T06:57:52.958Z,57.70
2022-09-03T06:58:49.387Z,56.96
2022-09-03T06:59:49.319Z,57.26
2022-09-03T07:00:49.428Z,56.76
2022-09-03T07:01:49.516Z,57.06
2022-09-03T07:02:50.029Z,56.96
2022-09-03T07:03:49.336Z,57.57
2022-09-03T07:04:49.257Z,57.37
2022-09-03T07:05:49.388Z,57.57
2022-09-03T07:06:49.308Z,57.26
2022-09-03T07:07:49.304Z,57.17
2022-09-03T07:08:49.358Z,57.06
2022-09-03T07:09:49.300Z,57.26
2022-09-03T07:10:49.252Z,57.77
2022-09-03T07:11:49.926Z,58.17
2022-09-03T07:12:49.230Z,57.67
2022-09-03T07:13:49.348Z,57.97
2022-09-03T07:14:51.209Z,57.17
2022-09-03T07:15:49.397Z,57.34
2022-09-03T07:16:49.250Z,57.54
2022-09-03T07:17:49.386Z,57.24
2022-09-03T07:18:49.290Z,56.81
2022-09-03T07:19:49.415Z,56.81
2022-09-03T07:20:49.425Z,56.71
2022-09-03T07:21:50.717Z,56.51
2022-09-03T07:22:49.285Z,56.10
2022-09-03T07:23:49.198Z,56.21
2022-09-03T07:24:49.116Z,55.88
2022-09-03T07:25:49.265Z,55.38
2022-09-03T07:26:49.297Z,56.08
2022-09-03T07:27:49.788Z,56.15
2022-09-03T07:28:49.385Z,55.85
2022-09-03T07:29:49.133Z,55.43
2022-09-03T07:30:49.147Z,55.73
2022-09-03T07:31:49.567Z,55.52
2022-09-03T07:32:49.095Z,54.70
2022-09-03T07:33:49.144Z,53.97
2022-09-03T07:34:49.166Z,52.47
2022-09-03T07:35:49.177Z,51.84
2022-09-03T07:36:49.256Z,52.44
2022-09-03T07:37:49.294Z,51.32
2022-09-03T07:38:49.407Z,51.42
2022-09-03T07:39:49.452Z,50.79
2022-09-03T07:40:49.169Z,50.20
2022-09-03T07:41:49.666Z,50.47
2022-09-03T07:42:53.238Z,50.47
2022-09-03T07:43:49.543Z,49.87
2022-09-03T07:44:49.363Z,50.27
2022-09-03T07:45:49.512Z,50.54
2022-09-03T07:46:49.053Z,49.65
2022-09-03T07:47:49.573Z,49.55
2022-09-03T07:48:49.014Z,50.22
2022-09-03T07:49:49.485Z,49.02
2022-09-03T07:50:48.985Z,48.32
2022-09-03T07:51:49.572Z,48.52
2022-09-03T07:52:49.785Z,48.52
2022-09-03T07:53:49.863Z,48.70
2022-09-03T07:54:49.753Z,48.50
2022-09-03T07:55:49.315Z,47.78
2022-09-03T07:56:48.920Z,47.58
2022-09-03T07:57:49.053Z,47.28
2022-09-03T07:58:48.905Z,47.18
2022-09-03T07:59:49.601Z,47.26
2022-09-03T08:00:48.983Z,47.45
2022-09-03T08:01:48.944Z,46.76
2022-09-03T08:02:48.972Z,46.94
2022-09-03T08:03:49.080Z,47.14
2022-09-03T08:04:48.964Z,46.94
2022-09-03T08:05:49.126Z,46.54
2022-09-03T08:06:49.163Z,46.24
2022-09-03T08:07:49.213Z,46.24
2022-09-03T08:08:49.255Z,45.82
2022-09-03T08:09:48.932Z,46.59
2022-09-03T08:10:48.847Z,45.50
2022-09-03T08:11:48.831Z,46.22
2022-09-03T08:12:48.924Z,46.72
2022-09-03T08:13:48.843Z,45.60
2022-09-03T08:14:48.835Z,46.00
2022-09-03T08:15:48.831Z,45.37
2022-09-03T08:16:48.801Z,45.18
2022-09-03T08:17:48.842Z,45.08
2022-09-03T08:18:48.866Z,45.15
2022-09-03T08:19:48.764Z,44.46
2022-09-03T08:20:48.881Z,44.36
2022-09-03T08:21:48.911Z,44.46
2022-09-03T08:22:48.804Z,44.44
2022-09-03T08:23:48.874Z,44.34
2022-09-03T08:24:48.931Z,44.44
2022-09-03T08:25:48.886Z,43.74
2022-09-03T08:26:52.145Z,43.64
2022-09-03T08:27:48.989Z,44.34
2022-09-03T08:28:48.707Z,43.94
2022-09-03T08:29:48.714Z,44.74
2022-09-03T08:30:49.014Z,43.02
2022-09-03T08:31:48.773Z,43.52
2022-09-03T08:32:48.693Z,43.32
2022-09-03T08:33:48.667Z,43.24
2022-09-03T08:34:48.685Z,44.24
2022-09-03T08:35:48.732Z,43.84
2022-09-03T08:36:48.743Z,44.34
2022-09-03T08:37:48.652Z,44.85
2022-09-03T08:38:48.621Z,44.66
2022-09-03T08:39:48.749Z,44.46
2022-09-03T08:40:48.763Z,44.16
2022-09-03T08:41:48.642Z,44.06
2022-09-03T08:42:48.591Z,44.96
2022-09-03T08:43:48.961Z,44.46
2022-09-03T08:44:48.621Z,44.66
2022-09-03T08:45:48.653Z,44.16
2022-09-03T08:46:49.137Z,45.75
2022-09-03T08:47:48.852Z,44.88
2022-09-03T08:48:48.585Z,44.48
2022-09-03T08:49:48.642Z,44.26
2022-09-03T08:50:49.183Z,46.37
2022-09-03T08:51:48.642Z,45.87
2022-09-03T08:52:48.766Z,44.48
2022-09-03T08:53:48.530Z,45.37
2022-09-03T08:54:48.773Z,45.87
2022-09-03T08:55:49.283Z,44.88
2022-09-03T08:56:49.340Z,45.57
2022-09-03T08:57:49.342Z,45.57
2022-09-03T08:58:48.883Z,44.85
2022-09-03T08:59:49.382Z,44.85
2022-09-03T09:00:48.583Z,43.98
2022-09-03T09:01:49.358Z,44.28
2022-09-03T09:02:48.603Z,43.68
2022-09-03T09:03:49.373Z,44.58
2022-09-03T09:04:48.562Z,45.26
2022-09-03T09:05:49.153Z,43.76
2022-09-03T09:06:48.748Z,44.56
2022-09-03T09:07:48.462Z,44.26
2022-09-03T09:08:48.604Z,44.16
2022-09-03T09:09:48.552Z,44.26
2022-09-03T09:10:48.734Z,44.36
2022-09-03T09:11:48.813Z,44.16
2022-09-03T09:12:49.002Z,44.96
2022-09-03T09:13:48.592Z,43.96
2022-09-03T09:14:48.452Z,44.06
2022-09-03T09:15:48.536Z,44.26
2022-09-03T09:16:48.497Z,43.57
2022-09-03T09:17:48.562Z,43.86
2022-09-03T09:18:48.606Z,44.16
2022-09-03T09:19:48.656Z,43.57
2022-09-03T09:20:48.641Z,43.94
2022-09-03T09:21:48.776Z,43.74
2022-09-03T09:22:48.831Z,43.44
2022-09-03T09:23:48.652Z,43.64
2022-09-03T09:24:48.602Z,43.44
2022-09-03T09:25:48.966Z,44.84
2022-09-03T09:26:48.743Z,43.94
2022-09-03T09:27:49.073Z,43.84
2022-09-03T09:28:51.038Z,45.83
2022-09-03T09:29:48.372Z,43.74
2022-09-03T09:30:48.419Z,44.12
2022-09-03T09:31:48.312Z,43.52
2022-09-03T09:32:48.401Z,43.92
2022-09-03T09:33:48.401Z,43.82
2022-09-03T09:34:52.017Z,43.82
2022-09-03T09:35:48.527Z,43.62
2022-09-03T09:36:48.544Z,44.02
2022-09-03T09:37:48.660Z,43.23
2022-09-03T09:38:48.411Z,43.32
2022-09-03T09:39:48.771Z,43.42
2022-09-03T09:40:48.652Z,44.02
2022-09-03T09:41:48.542Z,43.80
2022-09-03T09:42:48.772Z,44.10
2022-09-03T09:43:48.797Z,43.01
2022-09-03T09:44:48.353Z,43.72
2022-09-03T09:45:48.571Z,43.92
2022-09-03T09:46:51.476Z,44.52
2022-09-03T09:47:49.023Z,43.40
2022-09-03T09:48:48.173Z,43.70
2022-09-03T09:49:48.183Z,43.68
2022-09-03T09:50:48.211Z,43.38
2022-09-03T09:51:48.302Z,42.58
2022-09-03T09:52:48.265Z,42.58
2022-09-03T09:53:48.315Z,42.58
2022-09-03T09:54:48.422Z,42.49
2022-09-03T09:55:48.273Z,42.79
2022-09-03T09:56:48.453Z,42.99
2022-09-03T09:57:48.141Z,43.20
2022-09-03T09:58:48.543Z,43.48
2022-09-03T09:59:48.652Z,42.88
2022-09-03T10:00:48.562Z,43.48
2022-09-03T10:01:48.230Z,42.88
2022-09-03T10:02:48.318Z,42.79
2022-09-03T10:03:48.822Z,43.28
2022-09-03T10:04:48.483Z,42.99
2022-09-03T10:05:48.492Z,43.18
2022-09-03T10:06:48.292Z,42.86
2022-09-03T10:07:48.405Z,42.47
2022-09-03T10:08:48.093Z,42.57
2022-09-03T10:09:48.422Z,43.26
2022-09-03T10:10:48.365Z,42.15
2022-09-03T10:11:48.041Z,42.37
2022-09-03T10:12:48.041Z,41.97
2022-09-03T10:13:48.050Z,43.06
2022-09-03T10:14:48.003Z,43.16
2022-09-03T10:15:48.295Z,43.24
2022-09-03T10:16:48.013Z,42.35
2022-09-03T10:17:48.361Z,42.45
2022-09-03T10:18:48.273Z,42.47
2022-09-03T10:19:48.372Z,42.57
2022-09-03T10:20:48.012Z,42.74
2022-09-03T10:21:47.993Z,43.26
2022-09-03T10:22:56.567Z,43.85
2022-09-03T10:23:48.723Z,43.85
2022-09-03T10:24:48.723Z,44.23
2022-09-03T10:25:50.052Z,42.85
2022-09-03T10:26:47.942Z,42.52
2022-09-03T10:27:47.924Z,42.31
2022-09-03T10:28:47.932Z,43.00
2022-09-03T10:29:47.953Z,43.57
2022-09-03T10:30:48.018Z,42.09
2022-09-03T10:31:47.960Z,44.74
2022-09-03T10:32:48.574Z,42.14
2022-09-03T10:33:47.972Z,41.67
2022-09-03T10:34:48.072Z,42.09
2022-09-03T10:35:47.975Z,41.69
2022-09-03T10:36:48.193Z,41.47
2022-09-03T10:37:48.330Z,41.16
2022-09-03T10:38:48.128Z,39.95
2022-09-03T10:39:52.135Z,39.52
2022-09-03T10:40:47.832Z,38.98
2022-09-03T10:41:47.850Z,37.96
2022-09-03T10:42:47.982Z,37.73
2022-09-03T10:43:47.781Z,36.94
2022-09-03T10:44:47.831Z,36.82
2022-09-03T10:45:47.845Z,36.41
2022-09-03T10:46:47.899Z,35.11
2022-09-03T10:47:47.769Z,36.13
2022-09-03T10:48:47.863Z,37.15
2022-09-03T10:49:47.782Z,37.88
2022-09-03T10:50:47.872Z,38.49
2022-09-03T10:51:49.628Z,37.90
2022-09-03T10:52:47.890Z,36.88
2022-09-03T10:53:47.893Z,36.17
2022-09-03T10:54:47.692Z,37.05
2022-09-03T10:55:47.831Z,37.19
2022-09-03T10:56:47.912Z,37.60
2022-09-03T10:57:47.824Z,38.12
2022-09-03T10:58:47.923Z,38.69
2022-09-03T10:59:47.699Z,38.33
2022-09-03T11:00:47.735Z,40.19
2022-09-03T11:01:48.005Z,41.20
2022-09-03T11:02:47.734Z,41.60
2022-09-03T11:03:47.664Z,40.90
2022-09-03T11:04:47.764Z,39.97
2022-09-03T11:05:47.705Z,39.42
2022-09-03T11:06:47.852Z,39.00
2022-09-03T11:07:47.863Z,37.94
2022-09-03T11:08:47.875Z,39.12
2022-09-03T11:09:47.804Z,38.65
2022-09-03T11:10:48.026Z,39.85
2022-09-03T11:11:47.892Z,40.66
2022-09-03T11:12:47.633Z,40.66
2022-09-03T11:13:47.588Z,41.06
2022-09-03T11:14:47.904Z,42.14
2022-09-03T11:15:47.658Z,42.09
2022-09-03T11:16:47.715Z,41.18
2022-09-03T11:17:47.554Z,40.70
2022-09-03T11:18:47.664Z,40.80
2022-09-03T11:19:47.533Z,40.90
2022-09-03T11:20:47.573Z,41.49
2022-09-03T11:21:47.672Z,41.10
2022-09-03T11:22:47.553Z,40.90
2022-09-03T11:23:47.513Z,41.49
2022-09-03T11:24:47.563Z,42.29
2022-09-03T11:25:47.552Z,42.68
2022-09-03T11:26:47.574Z,42.09
2022-09-03T11:27:47.576Z,41.69
2022-09-03T11:28:47.721Z,41.99
2022-09-03T11:29:47.525Z,41.91
2022-09-03T11:30:47.576Z,42.11
2022-09-03T11:31:47.534Z,42.01
2022-09-03T11:32:47.555Z,42.01
2022-09-03T11:33:47.761Z,42.33
2022-09-03T11:34:47.574Z,42.52
2022-09-03T11:35:47.453Z,42.43
2022-09-03T11:36:48.192Z,43.42
2022-09-03T11:37:47.699Z,43.32
2022-09-03T11:38:47.413Z,43.32
2022-09-03T11:39:47.535Z,43.02
2022-09-03T11:40:47.442Z,42.52
2022-09-03T11:41:47.653Z,42.43
2022-09-03T11:42:47.478Z,42.11
2022-09-03T11:43:47.495Z,42.01
2022-09-03T11:44:51.200Z,42.60
2022-09-03T11:45:47.674Z,42.11
2022-09-03T11:46:47.414Z,41.99
2022-09-03T11:47:47.704Z,41.89
2022-09-03T11:48:47.715Z,41.79
2022-09-03T11:49:47.864Z,41.99
2022-09-03T11:50:47.878Z,42.09
2022-09-03T11:51:47.446Z,41.39
2022-09-03T11:52:47.344Z,41.47
2022-09-03T11:53:47.953Z,41.57
2022-09-03T11:54:47.365Z,41.99
2022-09-03T11:55:47.964Z,41.38
2022-09-03T11:56:47.978Z,41.06
2022-09-03T11:57:47.916Z,40.68
2022-09-03T11:58:47.334Z,40.78
2022-09-03T11:59:47.594Z,41.87
2022-09-03T12:00:47.373Z,41.20
2022-09-03T12:01:47.991Z,41.39
2022-09-03T12:02:47.503Z,41.60
2022-09-03T12:03:47.767Z,41.69
2022-09-03T12:04:47.402Z,41.87
2022-09-03T12:05:47.894Z,41.08
2022-09-03T12:06:48.054Z,41.06
2022-09-03T12:07:47.364Z,40.76
2022-09-03T12:08:47.225Z,41.95
2022-09-03T12:09:47.984Z,42.13
2022-09-03T12:10:48.054Z,41.83
2022-09-03T12:11:48.113Z,42.60
2022-09-03T12:12:47.704Z,41.20
2022-09-03T12:13:47.185Z,41.17
2022-09-03T12:14:47.527Z,40.27
2022-09-03T12:15:47.548Z,39.68
2022-09-03T12:16:48.020Z,39.65
2022-09-03T12:17:47.543Z,40.45
2022-09-03T12:18:47.154Z,40.27
2022-09-03T12:19:47.246Z,40.88
2022-09-03T12:20:47.251Z,40.88
2022-09-03T12:21:47.141Z,43.29
2022-09-03T12:22:47.296Z,43.19
2022-09-03T12:23:47.323Z,43.79
2022-09-03T12:24:47.333Z,42.11
2022-09-03T12:25:47.174Z,43.10
2022-09-03T12:26:47.174Z,42.82
2022-09-03T12:27:47.121Z,43.91
2022-09-03T12:28:47.174Z,44.60
2022-09-03T12:29:47.164Z,44.42
2022-09-03T12:30:47.229Z,45.04
2022-09-03T12:31:47.067Z,46.03
2022-09-03T12:32:47.067Z,44.64
2022-09-03T12:33:47.055Z,45.75
2022-09-03T12:34:47.118Z,44.96
2022-09-03T12:36:02.404Z,45.65
2022-09-03T12:36:47.024Z,49.91
2022-09-03T12:39:10.412Z,46.27
2022-09-03T12:41:47.081Z,45.28
2022-09-03T12:42:47.196Z,44.56
2022-09-03T12:43:50.259Z,44.98
2022-09-03T12:44:46.973Z,45.08
2022-09-03T12:46:47.526Z,44.98
2022-09-03T12:47:47.062Z,44.89
2022-09-03T12:48:47.129Z,44.27
2022-09-03T12:49:46.935Z,44.56
2022-09-03T12:50:49.439Z,44.68
2022-09-03T12:51:49.781Z,45.26
2022-09-03T12:52:47.146Z,45.06
2022-09-03T12:53:47.150Z,44.37
2022-09-03T12:54:50.305Z,44.64
2022-09-03T12:55:47.325Z,44.45
2022-09-03T12:56:47.339Z,43.73